createdAt,value
2018-07-09T00:00:09.112Z,91.40
2018-07-09T00:02:42.688Z,91.70
2018-07-09T00:05:16.581Z,91.80
2018-07-09T00:07:50.877Z,91.90
2018-07-09T00:10:34.211Z,91.90
2018-07-09T00:15:41.038Z,91.90
2018-07-09T00:18:15.355Z,91.80
2018-07-09T00:20:49.709Z,91.80
2018-07-09T00:23:23.981Z,91.60
2018-07-09T00:25:59.271Z,91.50
2018-07-09T00:28:33.373Z,91.30
2018-07-09T00:31:08.344Z,91.40
2018-07-09T00:36:15.678Z,91.20
2018-07-09T00:38:49.984Z,91.20
2018-07-09T00:41:25.570Z,91.30
2018-07-09T00:43:59.656Z,91.20
2018-07-09T00:46:33.937Z,91.20
2018-07-09T00:49:07.895Z,91.00
2018-07-09T00:51:42.271Z,90.90
2018-07-09T00:54:16.353Z,90.90
2018-07-09T00:56:50.248Z,90.60
2018-07-09T00:59:24.154Z,90.00
2018-07-09T01:01:57.897Z,89.70
2018-07-09T01:04:31.861Z,89.90
2018-07-09T01:07:05.359Z,89.40
2018-07-09T01:09:39.127Z,87.80
2018-07-09T01:12:15.007Z,88.60
2018-07-09T01:14:48.684Z,87.40
2018-07-09T01:17:22.561Z,87.00
2018-07-09T01:59:07.310Z,86.60
2018-07-09T02:01:41.094Z,87.00
2018-07-09T02:04:15.195Z,83.20
2018-07-09T02:06:48.612Z,82.40
2018-07-09T02:09:22.553Z,82.40
2018-07-09T02:14:28.915Z,83.10
2018-07-09T02:17:02.911Z,83.00
2018-07-09T02:19:37.843Z,83.10
2018-07-09T02:22:11.301Z,81.60
2018-07-09T02:24:45.412Z,82.20
2018-07-09T02:27:19.573Z,82.30
2018-07-09T02:29:53.642Z,80.90
2018-07-09T02:32:27.333Z,80.10
2018-07-09T02:35:02.173Z,79.80
2018-07-09T02:37:36.027Z,79.80
2018-07-09T02:40:10.096Z,78.50
2018-07-09T02:42:44.177Z,79.80
2018-07-09T02:47:50.579Z,79.00
2018-07-09T02:50:24.347Z,79.80
2018-07-09T02:52:58.331Z,79.50
2018-07-09T02:55:31.920Z,79.70
2018-07-09T02:58:05.887Z,80.50
2018-07-09T03:03:14.153Z,81.30
2018-07-09T03:05:48.727Z,80.20
2018-07-09T03:08:22.935Z,80.70
2018-07-09T03:10:56.620Z,80.80
2018-07-09T03:13:30.528Z,80.30
2018-07-09T03:16:04.684Z,80.70
2018-07-09T03:18:38.841Z,81.20
2018-07-09T03:21:13.034Z,81.20
2018-07-09T03:23:46.899Z,81.10
2018-07-09T03:26:20.910Z,81.40
2018-07-09T03:31:26.815Z,80.90
2018-07-09T03:34:00.983Z,81.30
2018-07-09T03:36:35.029Z,80.90
2018-07-09T03:39:08.727Z,80.20
2018-07-09T03:41:42.388Z,80.40
2018-07-09T03:44:15.889Z,80.50
2018-07-09T03:46:49.572Z,79.90
2018-07-09T03:49:23.454Z,80.00
2018-07-09T03:51:57.498Z,79.80
2018-07-09T03:54:31.788Z,79.60
2018-07-09T03:57:05.759Z,79.50
2018-07-09T03:59:39.979Z,81.00
2018-07-09T04:02:14.262Z,80.70
2018-07-09T04:04:48.423Z,80.70
2018-07-09T04:07:22.971Z,81.30
2018-07-09T04:09:56.407Z,81.70
2018-07-09T04:12:30.383Z,81.30
2018-07-09T04:15:04.376Z,80.70
2018-07-09T04:17:37.778Z,80.70
2018-07-09T04:20:11.616Z,80.20
2018-07-09T04:22:45.355Z,80.60
2018-07-09T04:25:18.784Z,79.30
2018-07-09T04:27:52.615Z,79.30
2018-07-09T04:30:26.620Z,79.70
2018-07-09T04:33:00.772Z,80.20
2018-07-09T04:35:34.752Z,80.50
2018-07-09T04:38:08.310Z,80.50
2018-07-09T04:40:42.748Z,80.00
2018-07-09T04:43:16.674Z,80.30
2018-07-09T04:45:50.797Z,80.80
2018-07-09T04:48:24.619Z,79.90
2018-07-09T04:53:30.656Z,79.10
2018-07-09T04:56:04.557Z,78.90
2018-07-09T04:58:46.967Z,79.20
2018-07-09T05:01:20.860Z,78.10
2018-07-09T05:03:55.191Z,77.70
2018-07-09T05:06:29.340Z,78.20
2018-07-09T05:09:03.636Z,78.00
2018-07-09T05:11:37.166Z,78.20
2018-07-09T05:14:10.676Z,77.40
2018-07-09T05:16:44.366Z,76.80
2018-07-09T05:19:17.763Z,77.10
2018-07-09T05:21:51.279Z,77.30
2018-07-09T05:24:25.356Z,78.40
2018-07-09T05:29:30.970Z,78.50
2018-07-09T05:32:05.359Z,78.20
2018-07-09T05:34:40.157Z,77.60
2018-07-09T05:37:13.927Z,77.40
2018-07-09T05:39:48.092Z,77.30
2018-07-09T05:42:21.654Z,78.00
2018-07-09T05:44:55.323Z,77.70
2018-07-09T05:47:29.204Z,77.30
2018-07-09T05:50:09.235Z,77.60
2018-07-09T05:55:15.344Z,76.40
2018-07-09T05:57:49.346Z,75.00
2018-07-09T06:00:22.644Z,75.20
2018-07-09T06:02:56.352Z,75.00
2018-07-09T06:05:30.169Z,75.10
2018-07-09T06:10:36.062Z,75.30
2018-07-09T06:13:10.125Z,74.40
2018-07-09T06:20:48.340Z,72.60
2018-07-09T06:25:54.267Z,72.10
2018-07-09T06:28:28.635Z,71.40
2018-07-09T06:33:35.057Z,73.30
2018-07-09T06:36:09.095Z,72.60
2018-07-09T06:38:42.917Z,72.30
2018-07-09T06:43:48.452Z,72.50
2018-07-09T06:46:21.800Z,72.00
2018-07-09T06:48:55.820Z,70.70
2018-07-09T06:51:29.620Z,70.30
2018-07-09T06:54:03.690Z,71.00
2018-07-09T06:56:37.287Z,70.10
2018-07-09T06:59:11.947Z,70.20
2018-07-09T07:01:45.728Z,70.60
2018-07-09T07:04:19.069Z,71.30
2018-07-09T07:06:52.963Z,72.30
2018-07-09T07:09:26.988Z,73.00
2018-07-09T07:12:00.642Z,73.40
2018-07-09T07:14:34.284Z,74.10
2018-07-09T07:17:08.049Z,74.00
2018-07-09T07:22:14.510Z,74.70
2018-07-09T07:24:48.285Z,75.30
2018-07-09T07:27:22.345Z,75.50
2018-07-09T07:32:28.511Z,75.20
2018-07-09T07:35:02.312Z,74.70
2018-07-09T07:37:36.203Z,73.60
2018-07-09T07:40:09.725Z,73.50
2018-07-09T07:47:48.776Z,72.30
2018-07-09T07:50:22.492Z,71.80
2018-07-09T07:52:56.516Z,71.80
2018-07-09T07:55:30.182Z,71.60
2018-07-09T07:58:03.379Z,70.90
2018-07-09T08:00:37.141Z,71.70
2018-07-09T08:03:10.523Z,71.80
2018-07-09T08:05:43.672Z,71.30
2018-07-09T08:08:17.309Z,70.70
2018-07-09T08:10:51.120Z,72.70
2018-07-09T08:13:29.008Z,72.80
2018-07-09T08:15:59.232Z,73.30
2018-07-09T08:18:33.376Z,73.90
2018-07-09T08:21:07.251Z,74.30
2018-07-09T08:23:40.610Z,74.90
2018-07-09T08:26:14.072Z,75.20
2018-07-09T08:28:47.744Z,75.40
2018-07-09T08:31:21.543Z,76.40
2018-07-09T08:33:55.427Z,76.60
2018-07-09T08:36:29.379Z,76.60
2018-07-09T08:39:02.645Z,77.50
2018-07-09T08:41:36.292Z,77.40
2018-07-09T08:44:10.107Z,77.80
2018-07-09T08:46:43.556Z,77.50
2018-07-09T08:49:18.013Z,77.80
2018-07-09T08:51:51.708Z,77.00
2018-07-09T08:54:25.460Z,77.00
2018-07-09T09:02:03.680Z,77.10
2018-07-09T09:04:37.463Z,75.60
2018-07-09T09:07:10.896Z,75.20
2018-07-09T09:09:45.023Z,75.20
2018-07-09T09:12:18.629Z,74.20
2018-07-09T09:14:52.740Z,74.00
2018-07-09T09:17:26.708Z,74.00
2018-07-09T09:20:00.683Z,74.10
2018-07-09T09:22:35.278Z,74.30
2018-07-09T09:25:09.384Z,74.00
2018-07-09T09:27:44.120Z,73.20
2018-07-09T09:30:18.052Z,73.70
2018-07-09T09:32:51.906Z,74.20
2018-07-09T09:35:25.283Z,75.00
2018-07-09T09:37:59.628Z,74.30
2018-07-09T09:40:33.047Z,74.80
2018-07-09T09:43:06.672Z,75.20
2018-07-09T09:45:40.375Z,74.90
2018-07-09T09:48:14.142Z,75.40
2018-07-09T09:50:47.411Z,76.10
2018-07-09T09:53:21.518Z,76.80
2018-07-09T09:55:55.388Z,77.00
2018-07-09T09:58:28.664Z,77.20
2018-07-09T10:01:01.820Z,77.60
2018-07-09T10:06:07.597Z,77.50
2018-07-09T10:08:41.473Z,78.10
2018-07-09T10:11:15.473Z,78.30
2018-07-09T10:13:48.915Z,78.70
2018-07-09T10:16:22.716Z,78.80
2018-07-09T10:18:56.399Z,79.10
2018-07-09T10:21:29.987Z,79.10
2018-07-09T10:24:03.634Z,78.80
2018-07-09T10:26:37.106Z,79.10
2018-07-09T10:29:10.913Z,79.30
2018-07-09T10:34:16.831Z,79.80
2018-07-09T10:36:54.162Z,80.20
2018-07-09T10:44:32.455Z,80.70
2018-07-09T10:47:06.992Z,81.30
2018-07-09T10:49:40.285Z,81.40
2018-07-09T10:52:13.940Z,82.80
2018-07-09T10:54:47.880Z,83.70
2018-07-09T10:57:21.687Z,84.40
2018-07-09T10:59:55.571Z,84.50
2018-07-09T11:02:29.400Z,85.00
2018-07-09T11:05:03.210Z,85.40
2018-07-09T11:07:36.760Z,85.90
2018-07-09T11:12:42.594Z,86.50
2018-07-09T11:15:16.230Z,86.90
2018-07-09T11:17:49.906Z,87.10
2018-07-09T11:20:23.676Z,87.40
2018-07-09T11:22:57.603Z,87.40
2018-07-09T11:25:31.239Z,87.60
2018-07-09T11:33:10.236Z,88.10
2018-07-09T11:35:43.672Z,88.30
2018-07-09T11:38:17.732Z,88.30
2018-07-09T11:40:51.706Z,88.40
2018-07-09T11:48:31.233Z,88.90
2018-07-09T11:51:04.618Z,88.80
2018-07-09T11:53:38.407Z,88.40
2018-07-09T11:56:12.435Z,87.90
2018-07-09T11:58:46.595Z,88.00
2018-07-09T12:01:20.648Z,88.10
2018-07-09T12:03:54.733Z,87.90
2018-07-09T12:06:28.382Z,87.00
2018-07-09T12:09:02.277Z,86.10
2018-07-09T12:11:36.208Z,86.50
2018-07-09T12:14:10.507Z,87.10
2018-07-09T12:16:44.356Z,87.30
2018-07-09T12:21:50.802Z,87.30
2018-07-09T12:24:24.884Z,86.70
2018-07-09T12:26:58.689Z,86.70
2018-07-09T12:29:33.139Z,87.30
2018-07-09T12:32:06.635Z,87.80
2018-07-09T12:34:40.565Z,88.10
2018-07-09T12:37:14.301Z,88.30
2018-07-09T12:39:47.839Z,88.10
2018-07-09T12:42:22.326Z,88.10
2018-07-09T12:44:56.438Z,87.50
2018-07-09T12:47:30.615Z,87.60
2018-07-09T12:50:04.444Z,87.70
2018-07-09T12:55:10.823Z,87.80
2018-07-09T13:00:16.959Z,87.80
2018-07-09T13:02:51.371Z,88.00
2018-07-09T13:05:24.529Z,88.20
2018-07-09T13:07:57.943Z,88.30
2018-07-09T13:10:33.174Z,88.40
2018-07-09T13:13:07.064Z,88.20
2018-07-09T13:15:41.499Z,88.50
2018-07-09T13:18:15.379Z,88.90
2018-07-09T13:20:48.580Z,89.10
2018-07-09T13:23:22.429Z,89.20
2018-07-09T13:25:56.404Z,89.20
2018-07-09T13:28:29.667Z,89.20
2018-07-09T13:33:37.057Z,89.40
2018-07-09T13:36:10.563Z,89.60
2018-07-09T13:41:17.292Z,90.20
2018-07-09T13:43:50.810Z,90.20
2018-07-09T13:46:24.984Z,90.20
2018-07-09T13:48:59.007Z,90.10
2018-07-09T13:51:33.461Z,89.90
2018-07-09T13:54:07.671Z,90.30
2018-07-09T13:56:53.168Z,90.40
2018-07-09T13:59:27.815Z,90.40
2018-07-09T14:02:02.033Z,90.40
2018-07-09T14:07:08.651Z,90.50
2018-07-09T14:09:43.182Z,90.30
2018-07-09T14:12:17.536Z,90.20
2018-07-09T14:14:51.661Z,90.10
2018-07-09T14:17:25.920Z,90.00
2018-07-09T14:20:34.025Z,89.70
2018-07-09T14:23:08.951Z,89.60
2018-07-09T14:25:42.930Z,89.40
2018-07-09T14:30:49.679Z,89.30
2018-07-09T14:33:22.964Z,89.30
2018-07-09T14:35:56.857Z,89.30
2018-07-09T14:38:30.542Z,89.30
2018-07-09T14:41:03.981Z,89.50
2018-07-09T14:43:37.843Z,89.70
2018-07-09T14:46:11.648Z,90.50
2018-07-09T14:48:45.495Z,90.40
2018-07-09T14:51:19.215Z,90.30
2018-07-09T14:53:52.785Z,90.40
2018-07-09T14:56:27.221Z,90.40
2018-07-09T14:59:00.781Z,90.40
2018-07-09T15:01:34.048Z,90.30
2018-07-09T15:06:40.539Z,90.30
2018-07-09T15:09:14.801Z,90.40
2018-07-09T15:11:49.336Z,90.40
2018-07-09T15:14:23.009Z,90.40
2018-07-09T15:16:57.416Z,90.40
2018-07-09T15:19:31.419Z,90.40
2018-07-09T15:22:04.784Z,90.50
2018-07-09T15:29:42.935Z,90.60
2018-07-09T15:32:23.506Z,90.50
2018-07-09T15:34:57.551Z,90.50
2018-07-09T15:37:31.620Z,90.50
2018-07-09T15:42:37.645Z,90.40
2018-07-09T15:45:11.610Z,90.50
2018-07-09T15:47:45.054Z,91.00
2018-07-09T15:50:18.923Z,90.80
2018-07-09T15:52:52.844Z,91.00
2018-07-09T15:55:26.712Z,90.90
2018-07-09T15:57:59.986Z,91.00
2018-07-09T16:00:33.468Z,91.00
2018-07-09T16:03:07.225Z,91.10
2018-07-09T16:05:41.097Z,91.10
2018-07-09T16:08:14.651Z,91.10
2018-07-09T16:10:47.990Z,91.10
2018-07-09T16:13:21.885Z,91.00
2018-07-09T16:15:55.973Z,90.90
2018-07-09T16:18:30.168Z,90.90
2018-07-09T16:21:04.179Z,91.00
2018-07-09T16:23:38.365Z,91.20
2018-07-09T16:28:43.827Z,91.10
2018-07-09T16:33:50.437Z,91.00
2018-07-09T16:36:24.397Z,90.90
2018-07-09T16:38:58.882Z,90.90
2018-07-09T16:41:32.936Z,90.80
2018-07-09T16:46:39.154Z,90.90
2018-07-09T16:54:18.547Z,83.10
2018-07-09T16:56:52.302Z,83.50
2018-07-09T16:59:25.742Z,82.30
2018-07-09T17:01:59.847Z,82.90
2018-07-09T17:04:33.532Z,84.80
2018-07-09T17:07:07.308Z,85.50
2018-07-09T17:14:46.238Z,89.40
2018-07-09T17:17:20.381Z,90.20
2018-07-09T17:19:54.167Z,90.80
2018-07-09T17:27:33.781Z,90.70
2018-07-09T17:30:07.606Z,91.20
2018-07-09T17:32:41.483Z,91.40
2018-07-09T17:35:15.334Z,91.60
2018-07-09T17:37:50.247Z,91.90
2018-07-09T17:40:24.074Z,92.00
2018-07-09T17:42:57.979Z,92.10
2018-07-09T17:45:31.647Z,91.90
2018-07-09T17:48:05.301Z,92.00
2018-07-09T17:50:39.048Z,91.40
2018-07-09T17:53:12.774Z,91.50
2018-07-09T17:55:46.068Z,91.60
2018-07-09T17:58:20.515Z,91.00
2018-07-09T18:00:54.547Z,90.80
2018-07-09T18:06:00.388Z,91.00
2018-07-09T18:08:34.206Z,91.20
2018-07-09T18:11:08.266Z,90.60
2018-07-09T18:13:41.612Z,91.00
2018-07-09T18:16:15.724Z,91.10
2018-07-09T18:18:48.912Z,90.90
2018-07-09T18:21:22.749Z,90.40
2018-07-09T18:23:56.611Z,90.80
2018-07-09T18:26:30.571Z,90.90
2018-07-09T18:29:04.239Z,91.00
2018-07-09T18:31:38.232Z,90.90
2018-07-09T18:34:12.184Z,91.10
2018-07-09T18:36:45.979Z,91.00
2018-07-09T18:39:19.619Z,91.20
2018-07-09T18:41:52.984Z,91.40
2018-07-09T18:44:26.703Z,91.40
2018-07-09T18:47:00.114Z,91.40
2018-07-09T18:49:33.524Z,91.20
2018-07-09T18:52:07.442Z,91.00
2018-07-09T18:54:41.240Z,90.90
2018-07-09T18:57:14.707Z,91.30
2018-07-09T18:59:48.665Z,91.20
2018-07-09T19:04:54.473Z,90.70
2018-07-09T19:07:29.161Z,90.90
2018-07-09T19:15:12.507Z,91.60
2018-07-09T19:17:56.050Z,91.00
2018-07-09T19:28:04.256Z,92.00
2018-07-09T19:30:34.894Z,91.80
2018-07-09T19:33:05.512Z,91.90
2018-07-09T19:35:36.099Z,92.10
2018-07-09T19:40:37.315Z,92.60
2018-07-09T19:43:08.152Z,92.70
2018-07-09T19:45:38.953Z,92.60
2018-07-09T19:50:39.881Z,92.60
2018-07-09T19:55:41.216Z,92.30
2018-07-09T19:58:11.783Z,92.60
2018-07-09T20:03:13.491Z,93.10
2018-07-09T20:05:44.027Z,93.10
2018-07-09T20:08:14.523Z,93.00
2018-07-09T20:10:48.723Z,93.10
2018-07-09T20:13:23.745Z,92.80
2018-07-09T20:15:58.755Z,92.90
2018-07-09T20:18:29.303Z,93.10
2018-07-09T20:23:30.482Z,92.90
2018-07-09T20:26:01.217Z,93.10
2018-07-09T20:28:31.832Z,93.30
2018-07-09T20:33:33.002Z,93.30
2018-07-09T20:36:03.528Z,93.50
2018-07-09T20:38:33.928Z,93.70
2018-07-09T20:41:04.767Z,93.60
2018-07-09T20:43:39.611Z,93.40
2018-07-09T20:46:10.356Z,93.50
2018-07-09T20:48:40.640Z,93.50
2018-07-09T20:51:11.192Z,93.70
2018-07-09T20:56:12.513Z,93.90
2018-07-09T20:58:43.211Z,94.10
2018-07-09T21:01:13.728Z,94.20
2018-07-09T21:03:44.471Z,94.10
2018-07-09T21:06:15.069Z,94.10
2018-07-09T21:13:46.928Z,94.40
2018-07-09T21:16:17.559Z,94.60
2018-07-09T21:18:48.334Z,94.70
2018-07-09T21:21:18.645Z,94.90
2018-07-09T21:26:19.740Z,95.10
2018-07-09T21:28:50.215Z,95.30
2018-07-09T21:31:20.936Z,95.40
2018-07-09T21:33:51.348Z,95.50
2018-07-09T21:36:22.151Z,95.50
2018-07-09T21:38:52.858Z,95.60
2018-07-09T21:43:54.138Z,95.80
2018-07-09T21:46:24.867Z,95.90
2018-07-09T21:48:55.452Z,95.90
2018-07-09T21:51:26.119Z,95.90
2018-07-09T21:56:27.020Z,95.60
2018-07-09T21:58:57.747Z,95.60
2018-07-09T22:01:28.306Z,95.70
2018-07-09T22:03:59.142Z,96.00
2018-07-09T22:06:29.728Z,96.30
2018-07-09T22:09:00.510Z,96.60
2018-07-09T22:11:31.112Z,96.60
2018-07-09T22:14:01.548Z,96.90
2018-07-09T22:16:32.206Z,97.10
2018-07-09T22:19:02.916Z,97.20
2018-07-09T22:24:04.351Z,97.50
2018-07-09T22:26:34.991Z,97.40
2018-07-09T22:29:05.517Z,97.30
2018-07-09T22:31:39.319Z,97.30
2018-07-09T22:34:13.339Z,97.40
2018-07-09T22:36:46.893Z,97.40
2018-07-09T22:39:20.868Z,97.40
2018-07-09T22:41:54.892Z,97.50
2018-07-09T22:47:01.140Z,97.30
2018-07-09T22:49:34.881Z,97.10
2018-07-09T22:54:41.327Z,97.30
2018-07-09T22:57:15.355Z,97.50
2018-07-09T22:59:49.099Z,97.60
2018-07-09T23:02:23.018Z,97.80
2018-07-09T23:04:56.917Z,97.70
2018-07-09T23:07:31.034Z,97.90
2018-07-09T23:10:13.699Z,97.90
2018-07-09T23:13:23.823Z,98.10
2018-07-09T23:18:42.566Z,98.10
2018-07-09T23:21:53.261Z,98.10
2018-07-09T23:24:23.956Z,98.10
2018-07-09T23:26:54.691Z,98.00
2018-07-09T23:29:25.329Z,98.00
2018-07-09T23:31:55.800Z,98.00
2018-07-09T23:34:26.054Z,98.00
2018-07-09T23:39:26.670Z,97.80
2018-07-09T23:41:57.537Z,97.80
2018-07-09T23:46:58.799Z,97.60
2018-07-09T23:52:00.051Z,97.60
2018-07-09T23:59:19.891Z,97.30
